Airports

 

 

Airport Name Latest METAR Visual Conditions
Atlantic City Int. (ACY) KACY 070754Z 34004KT 10SM CLR 17/10 A2983 RMK AO2 SLP100 T01720100 VFR
Baltimore International Airport (BWI) KBWI 070754Z 31004KT 10SM FEW075 BKN110 22/09 A2989 RMK AO2 SLP120 T02170094 VFR
Washington National Airport (DCA) KDCA 070752Z 35012KT 10SM BKN095 BKN250 23/11 A2990 RMK AO2 RAE18 SLP123 P0000 T02280111 VFR
Dulles International Airport (IAD) KIAD 070752Z 33006KT 10SM FEW085 20/11 A2991 RMK AO2 SLP124 T02000111 VFR
Norfolk International Airport (ORF) KORF 070751Z 21007KT 10SM CLR 21/19 A2985 RMK AO2 SLP107 T02060194 VFR
Raleigh International Airport (RDU) KRDU 070751Z 25004KT 10SM SCT250 23/21 A2990 RMK AO2 SLP118 T02280211 VFR
Richmond International Airport (RIC) KRIC 070754Z 32003KT 10SM FEW075 SCT095 22/19 A2987 RMK AO2 SLP118 T02170189 VFR
Roanoke Regional Airport (ROA) KROA 070754Z 02005KT 10SM CLR 20/18 A2995 RMK AO2 SLP128 T02000178 VFR